Time;durP1;ratioP1;P1;durP2;ratioP2;P2;SDS_P1;SDS_P2;PMS_P1;PMS_P2;Temp;Humidity;BMP_temperature;BMP_pressure;BME280_temperature;BME280_humidity;BME280_pressure;Samples;Min_cycle;Max_cycle;Signal;HPM_P1;HPM_P2
2023/01/31 00:00:09;;;;;;;29.52;5.15;;;;;;;;;;4932186;28;99333;-67
2023/01/31 00:02:35;;;;;;;30.40;4.38;;;;;;;;;;4933149;28;101000;-67
2023/01/31 00:05:01;;;;;;;32.97;5.35;;;;;;;;;;4930827;28;99686;-67
2023/01/31 00:07:27;;;;;;;23.83;3.38;;;;;;;;;;4935498;28;99029;-67
2023/01/31 00:09:54;;;;;;;21.35;4.25;;;;;;;;;;4932585;28;99551;-67
2023/01/31 00:12:20;;;;;;;30.73;3.90;;;;;;;;;;4932555;28;98619;-67
2023/01/31 00:14:46;;;;;;;26.00;3.58;;;;;;;;;;4918247;28;99348;-67
2023/01/31 00:17:13;;;;;;;25.02;3.72;;;;;;;;;;4931444;28;98816;-67
2023/01/31 00:19:39;;;;;;;23.88;4.18;;;;;;;;;;4930970;28;98590;-67
2023/01/31 00:22:05;;;;;;;27.05;3.78;;;;;;;;;;4932378;28;99993;-67
2023/01/31 00:24:32;;;;;;;35.45;4.53;;;;;;;;;;4932339;28;100566;-66
2023/01/31 00:26:58;;;;;;;25.60;4.18;;;;;;;;;;4932508;28;98582;-67
2023/01/31 00:29:25;;;;;;;32.65;4.25;;;;;;;;;;4935298;28;99591;-67
2023/01/31 00:31:51;;;;;;;28.00;4.28;;;;;;;;;;4932245;28;98528;-67
2023/01/31 00:34:18;;;;;;;23.23;4.15;;;;;;;;;;4932212;28;100266;-67
2023/01/31 00:36:44;;;;;;;23.42;3.78;;;;;;;;;;4931830;28;100368;-67
2023/01/31 00:39:10;;;;;;;21.77;3.90;;;;;;;;;;4932231;28;98853;-66
2023/01/31 00:41:37;;;;;;;32.95;3.58;;;;;;;;;;4932647;28;99623;-66
2023/01/31 00:44:05;;;;;;;24.77;3.28;;;;;;;;;;4930899;28;100566;-67
2023/01/31 00:46:31;;;;;;;24.17;3.22;;;;;;;;;;4931760;28;98647;-66
2023/01/31 00:48:57;;;;;;;25.48;3.78;;;;;;;;;;4929812;28;99355;-67
2023/01/31 00:51:25;;;;;;;23.65;3.45;;;;;;;;;;4934998;28;99497;-67
2023/01/31 00:53:52;;;;;;;27.60;3.67;;;;;;;;;;4932375;28;99000;-67
2023/01/31 00:56:20;;;;;;;18.73;3.40;;;;;;;;;;4931368;28;99498;-67
2023/01/31 00:58:46;;;;;;;25.65;3.25;;;;;;;;;;4931961;28;98507;-67
2023/01/31 01:01:14;;;;;;;27.35;3.22;;;;;;;;;;4930460;28;99211;-67
2023/01/31 01:03:42;;;;;;;28.50;2.83;;;;;;;;;;4931393;28;99562;-67
2023/01/31 01:06:08;;;;;;;25.60;4.22;;;;;;;;;;4931810;28;97797;-67
2023/01/31 01:08:35;;;;;;;25.38;3.65;;;;;;;;;;4931745;28;98808;-67
2023/01/31 01:11:05;;;;;;;22.98;3.45;;;;;;;;;;4934450;28;99490;-67
2023/01/31 01:13:31;;;;;;;27.30;3.88;;;;;;;;;;4931668;28;100429;-67
2023/01/31 01:16:02;;;;;;;27.95;3.58;;;;;;;;;;4930954;28;99545;-67
2023/01/31 01:18:29;;;;;;;27.98;3.47;;;;;;;;;;4931866;28;98645;-67
2023/01/31 01:20:55;;;;;;;14.82;2.92;;;;;;;;;;4931634;28;99305;-67
2023/01/31 01:23:21;;;;;;;19.88;3.30;;;;;;;;;;4929962;28;99627;-67
2023/01/31 01:25:48;;;;;;;25.63;2.85;;;;;;;;;;4931764;28;98572;-67
2023/01/31 01:28:14;;;;;;;27.35;3.53;;;;;;;;;;4931713;28;100273;-67
2023/01/31 01:30:40;;;;;;;38.10;4.43;;;;;;;;;;4931484;28;98880;-67
2023/01/31 01:33:06;;;;;;;20.52;2.90;;;;;;;;;;4934521;28;98630;-66
2023/01/31 01:35:33;;;;;;;21.55;3.47;;;;;;;;;;4930871;28;102675;-66
2023/01/31 01:37:59;;;;;;;28.30;3.35;;;;;;;;;;4911680;28;99239;-67
2023/01/31 01:40:25;;;;;;;23.17;3.50;;;;;;;;;;4912402;28;99934;-67
2023/01/31 01:42:51;;;;;;;29.45;3.75;;;;;;;;;;4926267;28;99840;-67
2023/01/31 01:45:18;;;;;;;34.20;5.30;;;;;;;;;;4930136;28;98599;-67
2023/01/31 01:47:49;;;;;;;24.83;3.38;;;;;;;;;;4930054;28;99665;-67
2023/01/31 01:50:18;;;;;;;19.80;3.25;;;;;;;;;;4929933;28;100564;-66
2023/01/31 01:52:50;;;;;;;22.95;3.28;;;;;;;;;;4931192;28;98571;-67
2023/01/31 01:55:33;;;;;;;28.38;3.08;;;;;;;;;;4933151;28;99496;-67
2023/01/31 01:58:03;;;;;;;23.70;3.47;;;;;;;;;;4929798;28;98539;-67
2023/01/31 02:00:30;;;;;;;21.50;3.63;;;;;;;;;;4931447;28;99429;-67
2023/01/31 02:02:58;;;;;;;24.80;3.50;;;;;;;;;;4930076;28;100556;-66
2023/01/31 02:05:29;;;;;;;21.48;2.92;;;;;;;;;;4931015;28;98620;-67
2023/01/31 02:07:56;;;;;;;26.48;4.18;;;;;;;;;;4930713;28;99269;-67
2023/01/31 02:10:29;;;;;;;13.45;2.70;;;;;;;;;;4934011;28;99503;-67
2023/01/31 02:12:55;;;;;;;29.23;3.70;;;;;;;;;;4934767;28;98689;-67
2023/01/31 02:15:21;;;;;;;30.70;4.70;;;;;;;;;;4918376;28;99274;-67
2023/01/31 02:17:48;;;;;;;30.48;4.05;;;;;;;;;;4937569;28;102719;-67
2023/01/31 02:20:25;;;;;;;19.58;3.03;;;;;;;;;;4934988;28;99807;-67
2023/01/31 02:23:07;;;;;;;22.15;3.33;;;;;;;;;;4932607;28;99530;-67
2023/01/31 02:25:39;;;;;;;26.83;3.95;;;;;;;;;;4934486;28;99327;-67
2023/01/31 02:28:05;;;;;;;26.58;3.15;;;;;;;;;;4933754;28;99681;-67
2023/01/31 02:30:50;;;;;;;34.22;4.78;;;;;;;;;;4933766;28;99507;-67
2023/01/31 02:33:17;;;;;;;22.58;3.40;;;;;;;;;;4934459;28;98564;-67
2023/01/31 02:36:06;;;;;;;23.45;3.50;;;;;;;;;;4932560;28;99173;-67
2023/01/31 02:38:44;;;;;;;23.30;4.22;;;;;;;;;;4900744;28;99987;-67
2023/01/31 02:41:24;;;;;;;27.35;3.67;;;;;;;;;;4915939;28;98632;-67
2023/01/31 02:46:58;;;;;;;24.20;3.50;;;;;;;;;;4912746;28;97968;-67
2023/01/31 02:49:44;;;;;;;30.52;3.60;;;;;;;;;;4912032;28;98566;-67
2023/01/31 02:52:19;;;;;;;31.35;4.40;;;;;;;;;;4911711;28;100551;-67
2023/01/31 02:57:37;;;;;;;25.00;4.32;;;;;;;;;;4911955;28;100127;-67
2023/01/31 03:00:05;;;;;;;32.90;5.45;;;;;;;;;;4911358;28;99499;-68
2023/01/31 03:02:31;;;;;;;34.55;4.90;;;;;;;;;;4896119;28;98668;-67
2023/01/31 03:04:58;;;;;;;23.50;4.32;;;;;;;;;;4915515;28;99208;-67
2023/01/31 03:07:28;;;;;;;32.00;4.72;;;;;;;;;;4911149;28;98915;-67
2023/01/31 03:09:57;;;;;;;25.77;4.28;;;;;;;;;;4912291;28;99433;-67
2023/01/31 03:12:39;;;;;;;26.13;4.07;;;;;;;;;;4912240;28;98768;-67
2023/01/31 03:15:05;;;;;;;23.55;4.75;;;;;;;;;;4917173;28;98627;-67
2023/01/31 03:17:53;;;;;;;30.80;5.22;;;;;;;;;;4933499;28;99216;-67
2023/01/31 03:20:20;;;;;;;41.17;6.15;;;;;;;;;;4932632;28;100452;-67
2023/01/31 03:22:57;;;;;;;26.15;4.72;;;;;;;;;;4932056;28;98591;-67
2023/01/31 03:25:26;;;;;;;31.55;5.18;;;;;;;;;;4934993;28;98979;-67
2023/01/31 03:27:55;;;;;;;40.00;6.03;;;;;;;;;;4933315;28;98642;-67
2023/01/31 03:30:29;;;;;;;34.63;5.37;;;;;;;;;;4933200;28;99144;-67
2023/01/31 03:32:58;;;;;;;26.67;5.13;;;;;;;;;;4933035;28;99610;-67
2023/01/31 03:35:26;;;;;;;39.08;6.13;;;;;;;;;;4933545;28;98643;-67
2023/01/31 03:37:52;;;;;;;37.30;7.32;;;;;;;;;;4933308;28;99503;-67
2023/01/31 03:40:23;;;;;;;33.53;6.13;;;;;;;;;;4933439;28;99535;-67
2023/01/31 03:42:49;;;;;;;;;;;;;;;;;;4933803;28;98735;-67
2023/01/31 03:45:37;;;;;;;31.52;5.78;;;;;;;;;;4933615;28;129525;-67
2023/01/31 03:48:06;;;;;;;44.50;6.07;;;;;;;;;;4935542;28;99608;-67
2023/01/31 03:50:37;;;;;;;34.08;5.80;;;;;;;;;;4933240;28;100843;-67
2023/01/31 03:53:08;;;;;;;44.50;6.30;;;;;;;;;;4932400;28;99522;-67
2023/01/31 03:56:04;;;;;;;28.27;6.00;;;;;;;;;;4932507;28;98549;-67
2023/01/31 03:58:33;;;;;;;41.25;8.20;;;;;;;;;;4853584;29;99531;-67
2023/01/31 04:01:01;;;;;;;30.38;6.32;;;;;;;;;;4838166;29;99311;-67
2023/01/31 04:03:29;;;;;;;36.30;6.47;;;;;;;;;;4854253;29;99199;-67
2023/01/31 04:05:55;;;;;;;43.13;6.97;;;;;;;;;;4853313;29;98860;-67
2023/01/31 04:08:22;;;;;;;33.90;7.22;;;;;;;;;;4837745;29;99642;-67
2023/01/31 04:10:49;;;;;;;39.10;6.95;;;;;;;;;;4857130;29;99433;-67
2023/01/31 04:13:15;;;;;;;35.42;6.60;;;;;;;;;;4853323;29;100015;-67
2023/01/31 04:15:41;;;;;;;39.10;8.18;;;;;;;;;;4853573;29;98572;-67
2023/01/31 04:18:08;;;;;;;32.72;6.82;;;;;;;;;;4853767;29;99383;-67
2023/01/31 04:20:34;;;;;;;40.13;7.47;;;;;;;;;;4853630;29;99557;-67
2023/01/31 04:23:02;;;;;;;29.85;6.70;;;;;;;;;;4853616;29;98847;-67
2023/01/31 04:25:28;;;;;;;45.22;7.88;;;;;;;;;;4853476;29;99621;-67
2023/01/31 04:27:57;;;;;;;42.70;7.80;;;;;;;;;;4853565;29;98911;-67
2023/01/31 04:30:24;;;;;;;47.22;10.18;;;;;;;;;;4853503;29;98623;-67
2023/01/31 04:32:50;;;;;;;44.00;7.72;;;;;;;;;;4855422;29;99308;-67
2023/01/31 04:35:16;;;;;;;46.15;7.90;;;;;;;;;;4900211;28;99318;-67
2023/01/31 04:37:43;;;;;;;37.85;7.18;;;;;;;;;;4932812;28;100637;-67
2023/01/31 04:40:12;;;;;;;47.88;8.93;;;;;;;;;;4930367;28;99749;-67
2023/01/31 04:42:39;;;;;;;47.17;9.60;;;;;;;;;;4932670;28;98586;-67
2023/01/31 04:45:05;;;;;;;38.78;8.05;;;;;;;;;;4932107;28;99410;-67
2023/01/31 04:47:32;;;;;;;42.45;8.38;;;;;;;;;;4930600;28;99760;-67
2023/01/31 04:49:58;;;;;;;35.67;8.93;;;;;;;;;;4932087;28;98512;-67
2023/01/31 04:52:24;;;;;;;43.83;8.38;;;;;;;;;;4932877;28;100266;-68
2023/01/31 04:54:51;;;;;;;37.92;8.45;;;;;;;;;;4934817;28;99447;-67
2023/01/31 04:57:17;;;;;;;39.05;8.13;;;;;;;;;;4930775;28;99268;-67
2023/01/31 04:59:43;;;;;;;43.05;9.25;;;;;;;;;;4931181;28;100314;-67
2023/01/31 05:02:10;;;;;;;32.35;9.00;;;;;;;;;;4932525;28;98538;-67
2023/01/31 05:04:36;;;;;;;35.13;9.60;;;;;;;;;;4931926;28;99191;-67
2023/01/31 05:07:02;;;;;;;45.85;8.35;;;;;;;;;;4931367;28;99363;-67
2023/01/31 05:09:28;;;;;;;38.97;8.13;;;;;;;;;;4930421;28;98522;-67
2023/01/31 05:11:55;;;;;;;33.15;8.38;;;;;;;;;;4932071;28;99394;-67
2023/01/31 05:14:21;;;;;;;44.88;9.55;;;;;;;;;;4931125;28;99660;-68
2023/01/31 05:16:47;;;;;;;40.63;8.40;;;;;;;;;;4933956;28;98410;-67
2023/01/31 05:19:14;;;;;;;45.30;8.63;;;;;;;;;;4931485;28;99518;-67
2023/01/31 05:21:58;;;;;;;28.23;8.32;;;;;;;;;;4931766;28;98587;-67
2023/01/31 05:24:35;;;;;;;33.78;8.73;;;;;;;;;;4931353;28;99180;-67
2023/01/31 05:27:02;;;;;;;38.78;8.57;;;;;;;;;;4931189;28;99909;-67
2023/01/31 05:29:30;;;;;;;38.08;8.80;;;;;;;;;;4931494;28;98635;-67
2023/01/31 05:31:57;;;;;;;42.15;9.60;;;;;;;;;;4931899;28;99191;-67
2023/01/31 05:34:24;;;;;;;48.45;10.23;;;;;;;;;;4930219;28;99675;-67
2023/01/31 05:36:51;;;;;;;42.50;8.52;;;;;;;;;;4928941;28;98546;-67
2023/01/31 05:39:17;;;;;;;39.72;9.68;;;;;;;;;;4916815;28;99584;-67
2023/01/31 05:41:44;;;;;;;27.02;7.65;;;;;;;;;;4912944;28;97794;-67
2023/01/31 05:44:10;;;;;;;47.70;9.98;;;;;;;;;;4911042;28;98798;-67
2023/01/31 05:46:37;;;;;;;36.30;8.60;;;;;;;;;;4924358;28;99569;-68
2023/01/31 05:49:03;;;;;;;47.42;9.27;;;;;;;;;;4930560;28;99234;-67
2023/01/31 05:51:30;;;;;;;41.65;9.13;;;;;;;;;;4931325;28;100053;-67
2023/01/31 05:53:56;;;;;;;36.53;7.97;;;;;;;;;;4930889;28;99851;-67
2023/01/31 05:56:22;;;;;;;34.10;8.55;;;;;;;;;;4931096;28;98604;-67
2023/01/31 05:58:49;;;;;;;40.15;8.18;;;;;;;;;;4934146;28;99517;-67
2023/01/31 06:01:17;;;;;;;35.80;7.43;;;;;;;;;;4930913;28;98559;-67
2023/01/31 06:03:43;;;;;;;40.42;8.68;;;;;;;;;;4931458;28;99498;-67
2023/01/31 06:06:09;;;;;;;46.25;9.13;;;;;;;;;;4928928;28;99008;-67
2023/01/31 06:08:36;;;;;;;35.38;9.30;;;;;;;;;;4929793;28;98558;-67
2023/01/31 06:11:05;;;;;;;40.35;8.95;;;;;;;;;;4929700;28;99158;-67
2023/01/31 06:13:32;;;;;;;47.03;8.93;;;;;;;;;;4925427;28;100458;-67
2023/01/31 06:15:59;;;;;;;36.25;7.45;;;;;;;;;;4919792;28;98519;-66
2023/01/31 06:18:25;;;;;;;41.92;8.90;;;;;;;;;;4931237;28;99372;-67
2023/01/31 06:20:52;;;;;;;33.95;7.53;;;;;;;;;;4934064;28;103307;-67
2023/01/31 06:23:18;;;;;;;36.20;7.63;;;;;;;;;;4930791;28;99913;-67
2023/01/31 06:25:49;;;;;;;38.25;7.22;;;;;;;;;;4930570;28;99585;-67
2023/01/31 06:28:16;;;;;;;40.10;7.22;;;;;;;;;;4929659;28;98538;-67
2023/01/31 06:30:42;;;;;;;36.00;7.40;;;;;;;;;;4929774;28;98571;-67
2023/01/31 06:33:09;;;;;;;45.45;8.95;;;;;;;;;;4930694;28;99711;-67
2023/01/31 06:35:35;;;;;;;31.17;7.72;;;;;;;;;;4930003;28;98593;-67
2023/01/31 06:38:01;;;;;;;41.63;8.25;;;;;;;;;;4910037;28;99278;-67
2023/01/31 06:40:29;;;;;;;33.63;7.80;;;;;;;;;;4911340;28;102570;-67
2023/01/31 06:42:56;;;;;;;36.83;7.15;;;;;;;;;;4926251;28;98775;-67
2023/01/31 06:45:23;;;;;;;37.80;7.05;;;;;;;;;;4930483;28;99411;-67
2023/01/31 06:47:49;;;;;;;32.58;6.70;;;;;;;;;;4931606;28;98523;-67
2023/01/31 06:50:16;;;;;;;35.15;6.55;;;;;;;;;;4931080;28;99025;-67
2023/01/31 06:52:42;;;;;;;30.15;6.63;;;;;;;;;;4929716;28;99935;-68
2023/01/31 06:55:08;;;;;;;39.72;7.03;;;;;;;;;;4932119;28;97784;-67
2023/01/31 06:57:35;;;;;;;38.83;6.22;;;;;;;;;;4934268;28;98764;-67
2023/01/31 07:00:01;;;;;;;29.45;5.60;;;;;;;;;;4933673;28;99514;-67
2023/01/31 07:02:28;;;;;;;28.10;6.00;;;;;;;;;;4933214;28;99571;-67
2023/01/31 07:04:54;;;;;;;29.08;6.63;;;;;;;;;;4936686;28;99829;-67
2023/01/31 07:07:21;;;;;;;39.78;7.82;;;;;;;;;;4933566;28;98545;-67
2023/01/31 07:09:48;;;;;;;33.92;6.22;;;;;;;;;;4932311;28;99658;-67
2023/01/31 07:12:14;;;;;;;35.38;6.75;;;;;;;;;;4933156;28;98765;-67
2023/01/31 07:14:41;;;;;;;33.75;6.82;;;;;;;;;;4932073;28;98642;-67
2023/01/31 07:17:07;;;;;;;29.10;6.20;;;;;;;;;;4932136;28;99349;-68
2023/01/31 07:19:34;;;;;;;36.95;7.72;;;;;;;;;;4933784;28;100224;-67
2023/01/31 07:22:00;;;;;;;34.85;7.18;;;;;;;;;;4933441;28;98604;-67
2023/01/31 07:24:26;;;;;;;31.52;6.00;;;;;;;;;;4936610;28;100801;-67
2023/01/31 07:26:53;;;;;;;33.55;6.85;;;;;;;;;;4932688;28;99699;-67
2023/01/31 07:29:19;;;;;;;40.45;7.07;;;;;;;;;;4933645;28;100004;-67
2023/01/31 07:31:45;;;;;;;34.10;7.25;;;;;;;;;;4932873;28;99907;-67
2023/01/31 07:34:12;;;;;;;30.33;6.30;;;;;;;;;;4933601;28;98593;-67
2023/01/31 07:36:38;;;;;;;31.65;6.60;;;;;;;;;;4928319;28;99296;-67
2023/01/31 07:39:05;;;;;;;25.30;6.15;;;;;;;;;;4928446;28;99579;-67
2023/01/31 07:41:31;;;;;;;46.92;7.32;;;;;;;;;;4928555;28;98661;-67
2023/01/31 07:43:58;;;;;;;42.58;6.97;;;;;;;;;;4928982;28;99215;-67
2023/01/31 07:46:24;;;;;;;43.78;8.05;;;;;;;;;;4928495;28;99594;-67
2023/01/31 07:48:51;;;;;;;35.58;6.78;;;;;;;;;;4933124;28;99226;-67
2023/01/31 07:51:17;;;;;;;35.53;6.13;;;;;;;;;;4932365;28;100247;-67
2023/01/31 07:53:44;;;;;;;30.35;7.28;;;;;;;;;;4931398;28;98568;-67
2023/01/31 07:56:13;;;;;;;31.15;6.28;;;;;;;;;;4933136;28;99239;-67
2023/01/31 07:58:40;;;;;;;26.40;6.90;;;;;;;;;;4931145;28;99537;-67
2023/01/31 08:03:53;;;;;;;30.75;6.95;;;;;;;;;;4932786;28;99278;-67
2023/01/31 08:06:20;;;;;;;27.60;5.72;;;;;;;;;;4929003;28;99505;-67
2023/01/31 08:08:46;;;;;;;27.98;6.72;;;;;;;;;;4936564;28;97832;-68
2023/01/31 08:11:12;;;;;;;43.53;7.13;;;;;;;;;;4931150;28;100907;-68
2023/01/31 08:13:39;;;;;;;40.22;8.32;;;;;;;;;;4932656;28;98918;-67
2023/01/31 08:16:06;;;;;;;30.95;6.80;;;;;;;;;;4932809;28;99504;-67
2023/01/31 08:18:33;;;;;;;32.25;6.22;;;;;;;;;;4932329;28;99606;-67
2023/01/31 08:20:59;;;;;;;34.13;7.28;;;;;;;;;;4932495;28;98523;-67
2023/01/31 08:23:26;;;;;;;37.92;7.47;;;;;;;;;;4932603;28;99838;-67
2023/01/31 08:25:58;;;;;;;28.92;5.55;;;;;;;;;;4930939;28;99703;-67
2023/01/31 08:28:24;;;;;;;35.53;5.88;;;;;;;;;;4931700;28;98628;-67
2023/01/31 08:30:50;;;;;;;37.45;7.40;;;;;;;;;;4935483;28;100374;-67
2023/01/31 08:33:35;;;;;;;25.98;6.20;;;;;;;;;;4933211;28;97710;-67
2023/01/31 08:36:17;;;;;;;28.05;6.50;;;;;;;;;;4929379;28;98894;-67
2023/01/31 08:38:43;;;;;;;38.35;6.65;;;;;;;;;;4922575;28;100672;-67
2023/01/31 08:41:11;;;;;;;36.20;6.28;;;;;;;;;;4931795;28;99590;-67
2023/01/31 08:43:37;;;;;;;29.55;5.72;;;;;;;;;;4932475;28;101088;-67
2023/01/31 08:46:21;;;;;;;25.88;5.45;;;;;;;;;;4931505;28;99584;-67
2023/01/31 08:48:48;;;;;;;33.30;5.53;;;;;;;;;;4932305;28;98551;-67
2023/01/31 08:51:14;;;;;;;29.48;6.30;;;;;;;;;;4932226;28;99527;-68
2023/01/31 08:53:43;;;;;;;30.73;6.20;;;;;;;;;;4934896;28;99543;-67
2023/01/31 08:56:10;;;;;;;31.25;5.65;;;;;;;;;;4932207;28;99355;-67
2023/01/31 08:58:37;;;;;;;23.52;5.65;;;;;;;;;;4932232;28;98787;-67
2023/01/31 09:01:05;;;;;;;26.95;6.88;;;;;;;;;;4932033;28;98575;-67
2023/01/31 09:03:31;;;;;;;33.60;6.50;;;;;;;;;;4932090;28;99242;-67
2023/01/31 09:05:59;;;;;;;28.92;7.05;;;;;;;;;;4930772;28;101392;-67
2023/01/31 09:08:25;;;;;;;31.20;8.73;;;;;;;;;;4931886;28;98796;-67
2023/01/31 09:10:52;;;;;;;31.95;6.60;;;;;;;;;;4931605;28;99691;-67
2023/01/31 09:13:19;;;;;;;31.45;7.65;;;;;;;;;;4926896;28;99615;-68
2023/01/31 09:15:45;;;;;;;29.10;6.78;;;;;;;;;;4922349;28;98673;-67
2023/01/31 09:18:11;;;;;;;32.22;5.63;;;;;;;;;;4931207;28;99940;-67
2023/01/31 09:20:38;;;;;;;31.50;5.28;;;;;;;;;;4931760;28;98564;-67
2023/01/31 09:23:04;;;;;;;31.27;5.63;;;;;;;;;;4931310;28;100436;-67
2023/01/31 09:25:30;;;;;;;27.52;5.50;;;;;;;;;;4931561;28;103085;-68
2023/01/31 09:28:12;;;;;;;29.67;5.78;;;;;;;;;;4931544;28;98576;-68
2023/01/31 09:30:38;;;;;;;28.60;5.80;;;;;;;;;;4930125;28;100403;-68
2023/01/31 09:33:05;;;;;;;27.45;5.72;;;;;;;;;;4931016;28;99777;-68
2023/01/31 09:35:31;;;;;;;21.60;5.40;;;;;;;;;;4934613;28;98539;-67
2023/01/31 09:37:58;;;;;;;29.92;6.32;;;;;;;;;;4930539;28;99489;-67
2023/01/31 09:40:25;;;;;;;27.63;6.30;;;;;;;;;;4931748;28;98871;-67
2023/01/31 09:42:53;;;;;;;37.13;6.03;;;;;;;;;;4931245;28;99246;-67
2023/01/31 09:45:30;;;;;;;21.95;5.97;;;;;;;;;;4929657;28;99571;-67
2023/01/31 09:47:58;;;;;;;28.23;6.32;;;;;;;;;;4931772;28;97739;-67
2023/01/31 09:50:24;;;;;;;27.05;5.95;;;;;;;;;;4931401;28;98640;-67
2023/01/31 09:52:51;;;;;;;35.20;5.95;;;;;;;;;;4930763;28;99458;-67
2023/01/31 09:55:31;;;;;;;25.35;5.95;;;;;;;;;;4930836;28;99297;-67
2023/01/31 09:58:05;;;;;;;25.00;5.85;;;;;;;;;;4934096;28;100002;-67
2023/01/31 10:00:45;;;;;;;35.10;6.88;;;;;;;;;;4929941;28;98543;-67
2023/01/31 10:03:28;;;;;;;43.80;7.30;;;;;;;;;;4931407;28;100048;-67
2023/01/31 10:06:00;;;;;;;30.83;6.80;;;;;;;;;;4928817;28;99540;-67
2023/01/31 10:08:29;;;;;;;26.35;6.65;;;;;;;;;;4931207;28;98505;-67
2023/01/31 10:10:58;;;;;;;26.05;6.05;;;;;;;;;;4931031;28;99228;-67
2023/01/31 10:13:34;;;;;;;22.52;6.20;;;;;;;;;;4930934;28;98804;-67
2023/01/31 10:16:09;;;;;;;31.45;6.13;;;;;;;;;;4929495;28;98954;-67
2023/01/31 10:18:39;;;;;;;37.42;7.50;;;;;;;;;;4929851;28;99509;-67
2023/01/31 10:21:12;;;;;;;27.70;6.05;;;;;;;;;;4933307;28;100669;-68
2023/01/31 10:23:44;;;;;;;32.10;6.07;;;;;;;;;;4930970;28;100128;-68
2023/01/31 10:26:19;;;;;;;41.25;6.78;;;;;;;;;;4930609;28;99692;-67
2023/01/31 10:28:46;;;;;;;28.23;6.03;;;;;;;;;;4930737;28;98630;-67
2023/01/31 10:31:12;;;;;;;32.67;6.85;;;;;;;;;;4934322;28;99209;-68
2023/01/31 10:33:43;;;;;;;28.08;6.45;;;;;;;;;;4933797;28;99504;-67
2023/01/31 10:36:13;;;;;;;26.77;5.25;;;;;;;;;;4934357;28;98518;-68
2023/01/31 10:38:52;;;;;;;32.03;6.22;;;;;;;;;;4934818;28;99293;-67
2023/01/31 10:41:24;;;;;;;35.58;7.68;;;;;;;;;;4933966;28;99495;-67
2023/01/31 10:43:56;;;;;;;39.63;6.07;;;;;;;;;;4937372;28;98487;-67
2023/01/31 10:46:22;;;;;;;29.65;6.05;;;;;;;;;;4933149;28;100314;-67
2023/01/31 10:48:49;;;;;;;31.20;6.25;;;;;;;;;;4933691;28;98591;-68
2023/01/31 10:51:26;;;;;;;38.13;6.55;;;;;;;;;;4934220;28;99401;-67
2023/01/31 10:54:02;;;;;;;27.23;5.30;;;;;;;;;;4933367;28;99552;-67
2023/01/31 10:56:37;;;;;;;28.38;6.18;;;;;;;;;;4933968;28;98509;-67
2023/01/31 10:59:06;;;;;;;31.38;6.18;;;;;;;;;;4932474;28;99421;-68
2023/01/31 11:01:35;;;;;;;27.63;5.85;;;;;;;;;;4933451;28;99833;-67
2023/01/31 11:04:03;;;;;;;35.63;7.10;;;;;;;;;;4934133;28;97841;-67
2023/01/31 11:06:29;;;;;;;30.65;6.25;;;;;;;;;;4936184;28;98872;-68
2023/01/31 11:08:57;;;;;;;33.97;6.43;;;;;;;;;;4933765;28;98843;-68
2023/01/31 11:11:25;;;;;;;30.33;6.63;;;;;;;;;;4931790;28;100272;-67
2023/01/31 11:13:57;;;;;;;38.80;7.00;;;;;;;;;;4932904;28;99418;-68
2023/01/31 11:16:24;;;;;;;28.83;5.38;;;;;;;;;;4933555;28;98527;-67
2023/01/31 11:18:51;;;;;;;25.48;5.55;;;;;;;;;;4933429;28;99558;-68
2023/01/31 11:21:38;;;;;;;28.20;5.75;;;;;;;;;;4931781;28;99774;-67
2023/01/31 11:24:07;;;;;;;29.00;4.97;;;;;;;;;;4933668;28;98700;-68
2023/01/31 11:26:34;;;;;;;27.13;5.53;;;;;;;;;;4933761;28;100586;-68
2023/01/31 11:29:04;;;;;;;32.95;5.78;;;;;;;;;;4936964;28;98966;-67
2023/01/31 11:31:32;;;;;;;31.80;6.72;;;;;;;;;;4933417;28;98911;-67
2023/01/31 11:34:03;;;;;;;36.53;6.10;;;;;;;;;;4932852;28;99715;-67
2023/01/31 11:36:39;;;;;;;38.90;5.63;;;;;;;;;;4929082;28;99287;-67
2023/01/31 11:39:24;;;;;;;31.45;5.65;;;;;;;;;;4919433;28;100008;-67
2023/01/31 11:41:51;;;;;;;36.47;5.47;;;;;;;;;;4912216;28;99751;-67
2023/01/31 11:44:18;;;;;;;25.75;5.57;;;;;;;;;;4912568;28;98710;-67
2023/01/31 11:46:53;;;;;;;30.45;6.07;;;;;;;;;;4928271;28;99423;-67
2023/01/31 11:49:38;;;;;;;38.42;5.50;;;;;;;;;;4935782;28;99693;-67
2023/01/31 11:52:12;;;;;;;39.22;6.13;;;;;;;;;;4933339;28;99729;-67
2023/01/31 11:54:41;;;;;;;34.75;7.03;;;;;;;;;;4931875;28;99208;-67
2023/01/31 11:57:15;;;;;;;32.45;5.35;;;;;;;;;;4931932;28;98540;-67
2023/01/31 11:59:41;;;;;;;28.40;4.72;;;;;;;;;;4932763;28;99664;-67
2023/01/31 12:02:37;;;;;;;38.00;6.78;;;;;;;;;;4930600;28;100838;-67
2023/01/31 12:05:07;;;;;;;26.42;4.47;;;;;;;;;;4923427;28;98982;-67
2023/01/31 12:07:45;;;;;;;34.45;6.03;;;;;;;;;;4932235;28;99680;-67
2023/01/31 12:10:43;;;;;;;30.90;5.68;;;;;;;;;;4932302;28;99267;-67
2023/01/31 12:13:19;;;;;;;30.65;6.40;;;;;;;;;;4911634;28;99002;-67
2023/01/31 12:15:49;;;;;;;33.60;6.68;;;;;;;;;;4919793;28;100670;-67
2023/01/31 12:18:20;;;;;;;32.10;5.00;;;;;;;;;;4931593;28;98539;-67
2023/01/31 12:20:57;;;;;;;27.90;4.90;;;;;;;;;;4933150;28;100141;-67
2023/01/31 12:23:32;;;;;;;34.47;5.93;;;;;;;;;;4932891;28;99511;-67
2023/01/31 12:26:07;;;;;;;30.05;5.47;;;;;;;;;;4932535;28;98957;-67
2023/01/31 12:28:42;;;;;;;27.88;5.50;;;;;;;;;;4932183;28;99271;-67
2023/01/31 12:31:14;;;;;;;26.80;4.40;;;;;;;;;;4931673;28;100081;-67
2023/01/31 12:33:52;;;;;;;31.85;5.00;;;;;;;;;;4932547;28;98915;-67
2023/01/31 12:36:37;;;;;;;36.58;5.47;;;;;;;;;;4935038;28;99193;-68
2023/01/31 12:39:09;;;;;;;29.70;5.75;;;;;;;;;;4931024;28;98641;-66
2023/01/31 12:41:38;;;;;;;30.17;5.25;;;;;;;;;;4932332;28;99655;-67
2023/01/31 12:44:23;;;;;;;37.60;5.13;;;;;;;;;;4931782;28;99526;-67
2023/01/31 12:46:55;;;;;;;32.33;4.50;;;;;;;;;;4933013;28;97775;-67
2023/01/31 12:49:54;;;;;;;28.65;5.07;;;;;;;;;;4930785;28;99001;-67
2023/01/31 12:52:23;;;;;;;29.95;5.68;;;;;;;;;;4929845;28;99849;-67
2023/01/31 12:55:08;;;;;;;25.73;4.65;;;;;;;;;;4931806;28;99318;-67
2023/01/31 12:57:55;;;;;;;21.05;3.58;;;;;;;;;;4932724;28;100252;-67
2023/01/31 13:00:21;;;;;;;24.48;5.03;;;;;;;;;;4926943;28;99563;-67
2023/01/31 13:02:54;;;;;;;34.65;4.45;;;;;;;;;;4932073;28;99507;-67
2023/01/31 13:05:20;;;;;;;29.77;5.30;;;;;;;;;;4931593;28;100530;-67
2023/01/31 13:07:55;;;;;;;25.75;4.00;;;;;;;;;;4930634;28;98637;-67
2023/01/31 13:10:38;;;;;;;24.48;3.45;;;;;;;;;;4931644;28;99888;-67
2023/01/31 13:13:09;;;;;;;20.30;3.42;;;;;;;;;;4932124;28;98590;-67
2023/01/31 13:15:35;;;;;;;;;;;;;;;;;;4932224;28;98550;-67
2023/01/31 13:18:03;;;;;;;22.88;4.03;;;;;;;;;;4933083;28;128394;-67
2023/01/31 13:20:35;;;;;;;24.80;4.10;;;;;;;;;;4931111;28;101363;-67
2023/01/31 13:23:05;;;;;;;34.67;4.70;;;;;;;;;;4934828;28;98512;-67
2023/01/31 13:25:31;;;;;;;26.33;4.35;;;;;;;;;;4931211;28;99857;-67
2023/01/31 13:27:59;;;;;;;19.83;3.38;;;;;;;;;;4931499;28;98540;-67
2023/01/31 13:30:34;;;;;;;24.58;5.07;;;;;;;;;;4931980;28;99113;-67
2023/01/31 13:33:06;;;;;;;21.05;4.25;;;;;;;;;;4931149;28;99434;-67
2023/01/31 13:35:38;;;;;;;33.10;4.80;;;;;;;;;;4930646;28;98515;-67
2023/01/31 13:38:10;;;;;;;22.23;3.85;;;;;;;;;;4912727;28;99256;-67
2023/01/31 13:40:57;;;;;;;29.08;5.00;;;;;;;;;;4911649;28;99602;-67
2023/01/31 13:43:23;;;;;;;31.25;4.30;;;;;;;;;;4927274;28;98487;-67
2023/01/31 13:45:58;;;;;;;19.88;4.88;;;;;;;;;;4921489;28;99297;-67
2023/01/31 13:48:27;;;;;;;23.33;4.07;;;;;;;;;;4930241;28;98498;-67
2023/01/31 13:51:00;;;;;;;32.38;4.68;;;;;;;;;;4930007;28;99438;-67
2023/01/31 13:53:29;;;;;;;27.70;4.78;;;;;;;;;;4930895;28;99722;-67
2023/01/31 13:55:55;;;;;;;25.35;4.20;;;;;;;;;;4931484;28;98495;-67
2023/01/31 13:58:24;;;;;;;22.67;3.85;;;;;;;;;;4931199;28;100574;-67
2023/01/31 14:01:09;;;;;;;26.80;4.25;;;;;;;;;;4930965;28;99497;-67
2023/01/31 14:03:54;;;;;;;22.45;3.80;;;;;;;;;;4930292;28;97760;-67
2023/01/31 14:06:20;;;;;;;17.83;3.85;;;;;;;;;;4933411;28;100435;-67
2023/01/31 14:08:46;;;;;;;31.90;3.95;;;;;;;;;;4930928;28;98562;-67
2023/01/31 14:11:12;;;;;;;23.13;4.28;;;;;;;;;;4929185;28;99253;-67
2023/01/31 14:13:43;;;;;;;21.48;3.88;;;;;;;;;;4931196;28;102263;-67
2023/01/31 14:16:28;;;;;;;23.73;3.92;;;;;;;;;;4930859;28;98646;-67
2023/01/31 14:18:54;;;;;;;16.15;3.35;;;;;;;;;;4931188;28;99387;-67
2023/01/31 14:21:30;;;;;;;23.23;3.45;;;;;;;;;;4929046;28;99498;-68
2023/01/31 14:24:01;;;;;;;20.75;3.55;;;;;;;;;;4931377;28;98492;-67
2023/01/31 14:26:30;;;;;;;15.25;3.42;;;;;;;;;;4930759;28;99267;-67
2023/01/31 14:28:57;;;;;;;22.08;4.60;;;;;;;;;;4934295;28;99274;-67
2023/01/31 14:31:25;;;;;;;23.63;4.40;;;;;;;;;;4930686;28;98492;-67
2023/01/31 14:33:56;;;;;;;15.57;3.33;;;;;;;;;;4930479;28;99738;-67
2023/01/31 14:36:45;;;;;;;23.23;3.28;;;;;;;;;;4926724;28;99276;-68
2023/01/31 14:39:18;;;;;;;19.67;2.63;;;;;;;;;;4917390;28;99998;-67
2023/01/31 14:41:47;;;;;;;13.93;2.65;;;;;;;;;;4911154;28;100900;-67
2023/01/31 14:44:31;;;;;;;21.20;3.55;;;;;;;;;;4909675;28;98552;-67
2023/01/31 14:47:03;;;;;;;17.30;3.28;;;;;;;;;;4926078;28;99265;-67
2023/01/31 14:49:42;;;;;;;16.10;3.05;;;;;;;;;;4930119;28;99478;-67
2023/01/31 14:52:17;;;;;;;17.63;2.33;;;;;;;;;;4933659;28;98500;-67